Terminal Aerodrome Forecast
Issued by NWS

Home | Current Version | Previous Version | Text Only | Print | Product List | Glossary On
Versions: 1 2 3 4 5 6 7 8 9 10 11 12 13 14 15 16 17
000
FTUS46 KSGX 032327
TAFONT
TAF
KONT 032327Z 0400/0506 22006KT P6SM FEW070
     FM041200 VRB04KT P6SM SKC WS015/02020KT
     FM041500 05008G18KT P6SM SKC
     FM042000 26009KT P6SM SKC
     FM050300 VRB05KT P6SM SKC=

USA.gov is the U.S. government's official web portal to all federal, state and local government web resources and services.